Latest Weather Observations for Orbost

IDV60801

Issued at 9:31 pm EST Tuesday 4 August 2015 (issued every 30 minutes, with the page automatically refreshed every 10 minutes)

About weather observations | Map of weather stations | Latest weather observations for VIC | Other Formats
Station Details ID: 084145 Name: ORBOST Lat: -37.69 Lon: 148.47 Height: 62.65 m
Data from the previous 72 hours. | See also: Recent months at Orbost
Date/Time
EST
Temp
°C
App
Temp
°C
Dew
Point
Rel
Hum
%
Delta-T
°C
Wind Press
QNH
hPa
Press
MSL
hPa
Rain
since 9 am
mm
Dir
 
Spd
km/h
Gust
km/h
Spd
kts
Gust
kts
04/09:30pm 4.4 0.5 -1.2 67 2.1 NNW 9 11 5 6 1015.1 1015.2 0.0
04/09:00pm 4.4 0.9 -1.4 66 2.1 NNW 7 9 4 5 1015.5 1015.6 0.0
04/08:30pm 4.7 1.3 -0.9 67 2.1 NNW 7 11 4 6 1015.7 1015.8 0.0
04/08:00pm 5.0 1.3 0.0 70 1.9 NNW 9 11 5 6 1015.9 1016.0 0.0
04/07:30pm 5.3 2.1 0.5 71 1.9 N 7 9 4 5 1016.1 1016.2 0.0
04/07:00pm 5.2 2.5 0.6 72 1.8 NNW 4 7 2 4 1016.2 1016.3 0.0
04/06:30pm 6.7 4.1 0.8 66 2.3 NNW 4 6 2 3 1016.1 1016.2 0.0
04/06:00pm 6.8 3.7 1.1 67 2.3 N 7 9 4 5 1016.1 1016.2 0.0
04/05:30pm 6.8 4.3 1.3 68 2.2 N 4 6 2 3 1016.2 1016.3 0.0
04/05:00pm 9.2 6.9 0.4 54 3.5 NW 2 4 1 2 1016.4 1016.5 0.0
04/04:30pm 11.0 8.0 0.7 49 4.3 WNW 6 9 3 5 1016.6 1016.7 0.0
04/04:00pm 11.4 8.2 0.5 47 4.5 W 7 11 4 6 1016.9 1017.0 0.0
04/03:30pm 11.1 8.0 0.2 47 4.5 WNW 6 11 3 6 1017.0 1017.1 0.0
04/03:00pm 11.4 8.2 0.5 47 4.5 W 7 11 4 6 1017.4 1017.5 0.0
04/02:30pm 11.4 7.6 -1.0 42 5.0 WNW 9 17 5 9 1017.6 1017.7 0.0
04/02:00pm 11.8 8.2 0.6 46 4.6 W 9 15 5 8 1017.9 1018.0 0.0
04/01:30pm 11.5 7.7 -0.6 43 4.9 WNW 9 15 5 8 1018.4 1018.5 0.0
04/01:00pm 11.2 7.1 0.0 46 4.6 WNW 11 17 6 9 1019.1 1019.2 0.0
04/12:30pm 10.9 6.0 -0.2 46 4.5 NW 15 24 8 13 1019.7 1019.8 0.0
04/12:00pm 10.2 5.7 -0.6 47 4.3 WNW 13 20 7 11 1020.2 1020.3 0.0
04/11:30am 10.2 5.8 0.3 50 4.0 W 13 22 7 12 1020.8 1020.9 0.0
04/11:00am 9.9 5.9 0.3 51 3.9 NW 11 19 6 10 1021.3 1021.4 0.0
04/10:30am 9.2 5.0 -0.7 50 3.9 NW 11 19 6 10 1021.8 1021.9 0.0
04/10:00am 8.4 3.9 -0.6 53 3.5 NW 13 19 7 10 1022.0 1022.1 0.0
04/09:30am 7.8 3.7 -0.2 57 3.1 NNW 11 19 6 10 1022.1 1022.2 0.0
04/09:00am 6.5 3.1 -0.7 60 2.7 NW 7 13 4 7 1022.3 1022.4 1.6
04/08:30am 5.4 0.9 -0.6 65 2.3 NNW 13 19 7 10 1022.2 1022.3 1.6
04/08:00am 4.2 0.0 -0.6 71 1.8 NNW 11 17 6 9 1022.3 1022.4 1.6
04/07:30am 3.3 -0.5 -0.9 74 1.5 NNW 9 15 5 8 1022.2 1022.3 1.6
04/07:00am 2.9 -0.9 -0.9 76 1.4 N 9 13 5 7 1022.1 1022.2 1.6
04/06:30am 3.5 -1.4 -0.5 75 1.5 N 15 19 8 10 1022.0 1022.1 1.6
04/06:00am 3.5 -0.6 -0.5 75 1.5 N 11 17 6 9 1021.8 1021.9 1.6
04/05:30am 3.9 -0.2 -0.5 73 1.6 NNW 11 17 6 9 1021.7 1021.8 1.6
04/05:00am 4.3 -0.2 -0.1 73 1.7 NNW 13 19 7 10 1021.6 1021.7 1.6
04/04:30am 4.9 0.8 0.1 71 1.8 NNW 11 17 6 9 1021.7 1021.8 1.6
04/04:00am 5.0 1.3 0.2 71 1.8 NNW 9 17 5 9 1021.6 1021.7 1.6
04/03:30am 4.9 1.2 0.1 71 1.8 NW 9 15 5 8 1021.7 1021.8 1.6
04/03:00am 4.8 1.2 0.4 73 1.7 NNW 9 17 5 9 1021.8 1021.9 1.6
04/02:30am 3.0 -0.7 -0.1 80 1.2 N 9 13 5 7 1022.0 1022.1 1.6
04/02:00am 3.4 0.1 -0.1 78 1.3 NNW 7 9 4 5 1022.0 1022.1 1.6
04/01:30am 4.6 1.3 0.0 72 1.7 NW 7 11 4 6 1022.1 1022.2 1.6
04/01:00am 5.7 1.7 0.5 69 2.0 NW 11 15 6 8 1022.2 1022.3 1.6
04/12:30am 5.3 1.3 0.5 71 1.9 NW 11 17 6 9 1022.1 1022.2 1.6
04/12:00am 4.6 0.9 0.0 72 1.7 WNW 9 17 5 9 1022.2 1022.3 1.6
 
Date/Time
EST
Temp
°C
App
Temp
°C
Dew
Point
Rel
Hum
%
Delta-T
°C
Wind Press
QNH
hPa
Press
MSL
hPa
Rain
since 9 am
mm
Dir
 
Spd
km/h
Gust
km/h
Spd
kts
Gust
kts
03/11:30pm 4.5 0.5 0.3 74 1.6 WNW 11 19 6 10 1021.9 1022.0 1.6
03/11:00pm 4.8 0.8 0.6 74 1.6 WNW 11 20 6 11 1021.8 1021.9 1.6
03/10:30pm 5.0 1.0 0.8 74 1.6 WNW 11 19 6 10 1022.0 1022.1 1.6
03/10:00pm 5.0 0.7 0.9 75 1.6 WNW 13 20 7 11 1022.0 1022.1 1.6
03/09:30pm 4.9 1.0 0.9 75 1.6 WNW 11 20 6 11 1021.9 1022.0 1.6
03/09:00pm 5.1 0.4 1.0 75 1.6 WNW 15 24 8 13 1021.7 1021.8 1.6
03/08:30pm 5.0 0.7 0.9 75 1.6 WNW 13 22 7 12 1021.6 1021.7 1.6
03/08:00pm 5.0 1.1 1.1 76 1.5 WNW 11 19 6 10 1021.6 1021.7 1.6
03/07:30pm 5.1 1.2 1.0 75 1.6 WNW 11 19 6 10 1021.4 1021.5 1.6
03/07:00pm 5.3 1.0 1.2 75 1.6 WNW 13 24 7 13 1021.2 1021.3 1.6
03/06:30pm 5.6 1.7 1.2 73 1.7 WNW 11 17 6 9 1020.8 1020.9 1.6
03/06:00pm 5.8 1.9 1.3 73 1.8 NW 11 19 6 10 1020.1 1020.2 1.6
03/05:30pm 6.2 2.3 1.3 71 2.0 WNW 11 19 6 10 1019.7 1019.8 1.6
03/05:00pm 7.2 1.8 1.1 65 2.4 W 19 32 10 17 1019.0 1019.1 1.6
03/04:30pm 7.7 1.9 0.2 59 3.0 W 20 33 11 18 1018.2 1018.3 1.6
03/04:00pm 8.2 2.3 1.4 62 2.8 W 22 37 12 20 1017.7 1017.8 1.6
03/03:37pm 8.5 1.2 0.2 56 3.3 W 28 48 15 26 1017.4 1017.5 1.6
03/03:30pm 8.7 2.4 1.6 61 2.9 W 24 39 13 21 1017.3 1017.4 1.6
03/03:00pm 8.7 2.3 0.7 57 3.2 W 24 43 13 23 1016.8 1016.9 1.6
03/02:30pm 8.8 0.6 -0.8 51 3.7 W 32 54 17 29 1016.3 1016.4 1.6
03/02:05pm 9.1 1.5 0.8 56 3.4 WSW 30 48 16 26 1015.9 1016.0 1.6
03/02:00pm 9.3 0.7 0.5 54 3.6 WSW 35 48 19 26 1015.9 1016.0 1.6
03/01:49pm 9.0 1.5 1.4 59 3.1 W 30 50 16 27 1015.7 1015.8 1.6
03/01:30pm 8.2 1.5 1.6 63 2.7 W 26 46 14 25 1015.7 1015.8 1.6
03/01:27pm 8.3 1.3 1.9 64 2.7 W 28 46 15 25 1015.6 1015.7 1.6
03/01:00pm 8.2 2.0 2.4 67 2.4 W 24 39 13 21 1015.3 1015.4 1.6
03/12:30pm 7.7 -0.1 2.0 67 2.4 W 32 50 17 27 1014.8 1014.9 1.6
03/12:00pm 8.0 0.7 2.3 67 2.4 WSW 30 50 16 27 1014.7 1014.8 1.6
03/11:30am 7.0 -0.8 2.9 75 1.7 W 33 54 18 29 1014.5 1014.6 1.6
03/11:00am 6.8 -2.5 3.2 78 1.5 WSW 41 63 22 34 1014.5 1014.6 1.6
03/10:54am 7.2 0.6 4.0 80 1.4 WSW 28 52 15 28 1014.4 1014.5 1.6
03/10:30am 6.4 1.3 3.9 84 1.1 W 20 30 11 16 1014.2 1014.2 1.6
03/10:00am 6.0 0.1 3.8 86 0.9 W 24 41 13 22 1013.6 1013.6 1.4
03/09:39am 6.1 -0.5 4.3 88 0.8 W 28 48 15 26 1013.1 1013.1 1.2
03/09:30am 6.2 0.0 4.5 89 0.7 W 26 44 14 24 1013.0 1013.0 0.8
03/09:00am 6.7 0.2 4.7 87 0.9 WSW 28 48 15 26 1012.5 1012.5 1.2
03/08:30am 7.1 1.1 5.1 87 0.9 WSW 26 41 14 22 1011.4 1011.4 1.2
03/08:14am 8.1 3.3 4.7 79 1.5 WSW 19 41 10 22 1011.2 1011.2 1.0
03/08:00am 9.5 6.0 3.7 67 2.5 W 11 20 6 11 1010.4 1010.4 0.8
03/07:30am 10.7 6.6 2.5 57 3.5 W 13 22 7 12 1009.5 1009.5 0.8
03/07:00am 10.9 6.8 2.2 55 3.7 WNW 13 22 7 12 1008.8 1008.8 0.8
03/06:30am 10.9 6.5 2.5 56 3.6 NW 15 28 8 15 1008.2 1008.2 0.8
03/06:00am 10.7 5.5 2.5 57 3.5 NW 19 30 10 16 1007.7 1007.7 0.8
03/05:30am 10.1 5.3 2.5 59 3.2 NNW 17 28 9 15 1007.6 1007.6 0.8
03/05:00am 9.4 4.9 2.3 61 3.0 NNW 15 22 8 12 1007.7 1007.7 0.8
03/04:30am 9.6 5.2 2.7 62 3.0 NNW 15 20 8 11 1007.9 1007.9 0.8
03/04:00am 7.6 3.9 4.2 79 1.5 N 13 30 7 16 1008.2 1008.2 0.8
03/03:30am 6.5 4.2 4.7 88 0.8 N 6 6 3 3 1008.3 1008.3 0.8
03/03:00am 6.7 4.7 4.2 84 1.1 NNW 4 6 2 3 1008.7 1008.7 0.8
03/02:30am 6.8 4.6 3.2 78 1.5 NW 4 7 2 4 1008.8 1008.8 0.8
03/02:00am 7.4 5.0 2.1 69 2.2 WNW 4 7 2 4 1008.5 1008.5 0.8
03/01:30am 8.0 6.4 2.3 67 2.4 CALM 0 0 0 0 1008.5 1008.5 0.8
03/01:00am 7.4 5.8 2.7 72 2.0 CALM 0 2 0 1 1008.4 1008.4 0.8
03/12:30am 7.8 6.3 2.9 71 2.1 CALM 0 2 0 1 1008.5 1008.5 0.8
03/12:00am 7.9 6.0 3.0 71 2.1 E 2 4 1 2 1008.7 1008.7 0.8
 
Date/Time
EST
Temp
°C
App
Temp
°C
Dew
Point
Rel
Hum
%
Delta-T
°C
Wind Press
QNH
hPa
Press
MSL
hPa
Rain
since 9 am
mm
Dir
 
Spd
km/h
Gust
km/h
Spd
kts
Gust
kts
02/11:30pm 8.5 6.9 2.3 65 2.6 CALM 0 2 0 1 1009.1 1009.1 0.8
02/11:00pm 9.2 6.7 1.6 59 3.2 NNW 4 6 2 3 1009.3 1009.3 0.8
02/10:30pm 9.1 6.1 1.8 60 3.0 N 7 9 4 5 1009.5 1009.5 0.8
02/10:00pm 9.7 6.1 0.9 54 3.6 NNW 9 13 5 7 1009.5 1009.5 0.8
02/09:30pm 10.2 5.5 1.1 53 3.8 NNW 15 20 8 11 1009.6 1009.6 0.8
02/09:00pm 10.6 5.1 0.6 50 4.1 NNW 19 26 10 14 1009.8 1009.8 0.8
02/08:30pm 10.5 5.0 0.8 51 4.0 NNW 19 26 10 14 1009.7 1009.7 0.8
02/08:00pm 10.6 5.1 0.9 51 4.0 NNW 19 30 10 16 1010.0 1010.0 0.8
02/07:30pm 11.0 5.6 1.0 50 4.2 NW 19 33 10 18 1009.9 1009.9 0.8
02/07:00pm 11.2 5.4 2.2 54 3.9 NNW 22 33 12 18 1009.8 1009.8 0.8
02/06:30pm 10.6 6.1 4.1 64 2.9 NW 17 28 9 15 1009.7 1009.7 0.8
02/06:00pm 8.4 6.5 6.9 90 0.7 NW 6 7 3 4 1009.1 1009.1 0.8
02/05:30pm 9.1 7.6 6.7 85 1.1 NNW 4 4 2 2 1008.6 1008.6 0.8
02/05:00pm 10.9 9.6 7.6 80 1.6 NNW 4 6 2 3 1008.0 1008.0 0.8
02/04:30pm 11.8 9.9 7.7 76 2.0 NNW 7 9 4 5 1008.0 1008.0 0.8
02/04:00pm 12.1 10.1 7.2 72 2.4 NNW 7 9 4 5 1007.9 1007.9 0.8
02/03:30pm 12.2 10.2 7.3 72 2.4 NNW 7 11 4 6 1008.1 1008.1 0.8
02/03:00pm 12.0 10.0 6.9 71 2.5 WNW 7 13 4 7 1008.5 1008.5 0.8
02/02:30pm 11.7 9.7 7.2 74 2.2 NW 7 9 4 5 1008.4 1008.4 0.8
02/02:00pm 10.8 8.7 6.6 75 2.0 W 7 11 4 6 1008.4 1008.4 0.8
02/01:30pm 10.3 8.6 7.7 84 1.3 WSW 6 9 3 5 1008.4 1008.4 0.8
02/01:00pm 9.5 8.1 7.1 85 1.1 W 4 7 2 4 1009.1 1009.1 0.8
02/12:30pm 8.9 6.1 7.0 88 0.9 NNW 11 13 6 7 1009.3 1009.3 0.8
02/12:00pm 8.3 5.9 6.8 90 0.7 N 9 13 5 7 1010.0 1010.0 0.8
02/11:30am 8.0 6.1 6.6 91 0.6 N 6 11 3 6 1010.7 1010.7 0.8
02/11:00am 7.8 5.3 6.7 93 0.5 N 9 11 5 6 1011.3 1011.3 0.8
02/10:30am 7.1 4.8 5.9 92 0.5 NNW 7 9 4 5 1012.1 1012.1 0.4
02/10:00am 7.1 5.0 6.0 93 0.5 N 6 9 3 5 1011.9 1011.9 0.4
02/09:30am 6.9 4.9 6.2 95 0.3 N 6 7 3 4 1012.6 1012.6 0.2
02/09:00am 6.7 5.1 6.3 97 0.2 NNW 4 6 2 3 1012.9 1012.9 4.2
02/08:30am 6.5 5.2 6.1 97 0.2 NW 2 2 1 1 1013.1 1013.1 4.2
02/08:00am 6.4 5.1 6.0 97 0.2 WNW 2 4 1 2 1013.1 1013.1 3.8
02/07:30am 6.3 4.9 5.7 96 0.3 NW 2 4 1 2 1012.6 1012.6 3.4
02/07:00am 6.4 5.0 5.7 95 0.3 WNW 2 4 1 2 1012.4 1012.4 3.0
02/06:30am 6.5 4.7 5.6 94 0.4 NNE 4 6 2 3 1012.2 1012.2 2.8
02/06:00am 6.4 5.4 5.7 95 0.3 CALM 0 2 0 1 1012.2 1012.2 2.8
02/05:30am 6.3 4.9 5.4 94 0.4 NNE 2 4 1 2 1012.6 1012.6 2.6
02/05:00am 6.4 5.4 5.5 94 0.4 CALM 0 0 0 0 1012.6 1012.6 2.6
02/04:30am 6.3 5.2 5.3 93 0.4 CALM 0 0 0 0 1012.9 1012.9 2.6
02/04:00am 6.7 5.6 5.3 91 0.6 CALM 0 0 0 0 1013.2 1013.2 2.6
02/03:30am 6.5 5.4 5.0 90 0.7 CALM 0 0 0 0 1013.9 1013.9 2.6
02/03:00am 7.0 4.8 5.3 89 0.8 NNE 6 7 3 4 1014.1 1014.1 2.6
02/02:30am 7.0 5.2 5.5 90 0.7 N 4 6 2 3 1014.5 1014.6 2.6
02/02:00am 7.1 6.0 5.1 87 0.9 CALM 0 0 0 0 1015.1 1015.2 2.6
02/01:30am 7.6 5.2 5.4 86 1.0 NNE 7 9 4 5 1015.1 1015.2 2.6
02/01:00am 7.1 5.7 5.4 89 0.8 NW 2 6 1 3 1015.5 1015.6 2.6
02/12:30am 7.6 5.4 5.4 86 1.0 N 6 7 3 4 1015.3 1015.4 2.6
02/12:00am 7.5 5.4 5.6 88 0.9 NNE 6 7 3 4 1015.2 1015.3 2.6
 
Date/Time
EST
Temp
°C
App
Temp
°C
Dew
Point
Rel
Hum
%
Delta-T
°C
Wind Press
QNH
hPa
Press
MSL
hPa
Rain
since 9 am
mm
Dir
 
Spd
km/h
Gust
km/h
Spd
kts
Gust
kts
01/11:30pm 7.2 5.1 5.7 90 0.7 NNW 6 7 3 4 1016.3 1016.4 2.6
01/11:00pm 7.4 5.3 6.0 91 0.6 NNE 6 6 3 3 1015.8 1015.9 2.6
01/10:30pm 7.4 6.0 5.5 88 0.9 NNE 2 6 1 3 1016.1 1016.2 2.6
01/10:00pm 7.6 5.6 6.1 90 0.7 NNW 6 9 3 5 1016.4 1016.5 2.6

Other Formats:

Comma delimited format used in spreadsheet applications
http://www.bom.gov.au/fwo/IDV60801/IDV60801.95918.axf

JavaScript Object Notation format (JSON) in row-major order
http://www.bom.gov.au/fwo/IDV60801/IDV60801.95918.json